Terminal Aerodrome Forecast
Issued by NWS

Home | Current Version | Previous Version | Text Only | Print | Product List | Glossary On
Versions: 1 2 3 4 5 6 7 8 9 10 11 12 13 14 15 16 17 18 19 20 21 22 23 24 25
000
FTUS45 KBOU 151133
TAFBJC
TAF
KBJC 151133Z 1512/1612 32004KT P6SM FEW100 SCT140 BKN200
     FM151700 02008KT P6SM SCT090 BKN140
     FM152000 06005KT P6SM VCTS SCT070CB BKN110 PROB30 1521/1601
      VRB20G35KT SHRA BKN070
     FM160200 02012G22KT P6SM VCTS SCT070CB BKN100
      TEMPO 1602/1605 -TSRA BKN060CB
     FM160500 04009KT P6SM VCSH SCT030 OVC050
     FM161000 06007KT P6SM OVC012=

USA.gov is the U.S. government's official web portal to all federal, state and local government web resources and services.